Time,TemperatureF,DewpointF,PressureIn,WindDirection,WindDirectionDegrees,WindSpeedMPH,WindSpeedGustMPH,Humidity,HourlyPrecipIn,Conditions,Clouds,dailyrainin,SoftwareType,DateUTC
2013-01-15 00:06:00,13.8,12.0,30.47,NW,316,0.0,0.0,94,0.00,,,0.00,weatherlink.com 1.10,2013-01-15 05:06:00,
2013-01-15 00:21:00,13.3,12.0,30.47,NW,316,0.0,0.0,94,0.00,,,0.00,weatherlink.com 1.10,2013-01-15 05:21:00,
2013-01-15 00:36:00,13.1,12.0,30.48,NW,316,0.0,0.0,94,0.00,,,0.00,weatherlink.com 1.10,2013-01-15 05:36:00,
2013-01-15 00:51:00,13.3,12.0,30.48,NW,316,0.0,0.0,94,0.00,,,0.00,weatherlink.com 1.10,2013-01-15 05:51:00,
2013-01-15 01:06:00,13.2,12.0,30.47,NW,316,0.0,0.0,94,0.00,,,0.00,weatherlink.com 1.10,2013-01-15 06:06:00,
2013-01-15 01:21:00,12.9,11.0,30.48,NW,316,0.0,0.0,93,0.00,,,0.00,weatherlink.com 1.10,2013-01-15 06:21:00,
2013-01-15 01:36:00,12.8,11.0,30.48,NW,316,0.0,0.0,93,0.00,,,0.00,weatherlink.com 1.10,2013-01-15 06:36:00,
2013-01-15 01:51:00,12.7,11.0,30.49,NW,316,0.0,0.0,94,0.00,,,0.00,weatherlink.com 1.10,2013-01-15 06:51:00,
2013-01-15 02:06:00,12.9,12.0,30.48,NW,316,0.0,0.0,94,0.00,,,0.00,weatherlink.com 1.10,2013-01-15 07:06:00,
2013-01-15 02:21:00,13.2,12.0,30.48,NW,316,0.0,0.0,94,0.00,,,0.00,weatherlink.com 1.10,2013-01-15 07:21:00,
2013-01-15 02:36:00,13.2,12.0,30.48,NW,316,0.0,0.0,93,0.00,,,0.00,weatherlink.com 1.10,2013-01-15 07:36:00,
2013-01-15 02:51:00,12.4,11.0,30.48,NW,316,0.0,0.0,93,0.00,,,0.00,weatherlink.com 1.10,2013-01-15 07:51:00,
2013-01-15 03:06:00,12.5,11.0,30.48,NW,316,0.0,0.0,94,0.00,,,0.00,weatherlink.com 1.10,2013-01-15 08:06:00,
2013-01-15 03:21:00,12.7,11.0,30.48,NW,316,0.0,0.0,94,0.00,,,0.00,weatherlink.com 1.10,2013-01-15 08:21:00,
2013-01-15 03:36:00,12.7,11.0,30.48,NW,316,0.0,0.0,93,0.00,,,0.00,weatherlink.com 1.10,2013-01-15 08:36:00,
2013-01-15 03:51:00,12.8,11.0,30.47,NW,316,0.0,0.0,93,0.00,,,0.00,weatherlink.com 1.10,2013-01-15 08:51:00,
2013-01-15 04:06:00,12.6,11.0,30.47,NW,316,0.0,0.0,93,0.00,,,0.00,weatherlink.com 1.10,2013-01-15 09:06:00,
2013-01-15 04:21:00,12.6,11.0,30.48,NW,316,0.0,0.0,93,0.00,,,0.00,weatherlink.com 1.10,2013-01-15 09:21:00,
2013-01-15 04:36:00,12.9,12.0,30.48,NW,316,0.0,0.0,94,0.00,,,0.00,weatherlink.com 1.10,2013-01-15 09:36:00,
2013-01-15 04:51:00,13.0,11.0,30.48,NW,316,0.0,0.0,93,0.00,,,0.00,weatherlink.com 1.10,2013-01-15 09:51:00,
2013-01-15 05:06:00,13.0,11.0,30.48,NW,316,0.0,0.0,93,0.00,,,0.00,weatherlink.com 1.10,2013-01-15 10:06:00,
2013-01-15 05:21:00,12.7,11.0,30.48,NW,316,0.0,0.0,93,0.00,,,0.00,weatherlink.com 1.10,2013-01-15 10:21:00,
2013-01-15 05:36:00,12.8,11.0,30.47,NW,316,0.0,0.0,93,0.00,,,0.00,weatherlink.com 1.10,2013-01-15 10:36:00,
2013-01-15 05:51:00,12.6,11.0,30.46,NW,316,0.0,0.0,93,0.00,,,0.00,weatherlink.com 1.10,2013-01-15 10:51:00,
2013-01-15 06:06:00,12.3,11.0,30.46,NW,316,0.0,0.0,93,0.00,,,0.00,weatherlink.com 1.10,2013-01-15 11:06:00,
2013-01-15 06:21:00,12.1,11.0,30.47,NW,316,0.0,0.0,93,0.00,,,0.00,weatherlink.com 1.10,2013-01-15 11:21:00,
2013-01-15 06:36:00,11.4,10.0,30.47,NW,316,0.0,0.0,92,0.00,,,0.00,weatherlink.com 1.10,2013-01-15 11:36:00,
2013-01-15 06:51:00,11.6,10.0,30.47,NW,316,0.0,0.0,93,0.00,,,0.00,weatherlink.com 1.10,2013-01-15 11:51:00,
2013-01-15 07:06:00,11.7,10.0,30.47,NW,316,0.0,0.0,93,0.00,,,0.00,weatherlink.com 1.10,2013-01-15 12:06:00,
2013-01-15 07:21:00,11.8,10.0,30.47,NW,316,0.0,0.0,93,0.00,,,0.00,weatherlink.com 1.10,2013-01-15 12:21:00,
2013-01-15 07:36:00,11.8,10.0,30.47,NW,316,0.0,0.0,93,0.00,,,0.00,weatherlink.com 1.10,2013-01-15 12:36:00,
2013-01-15 07:51:00,11.8,10.0,30.47,NW,316,0.0,0.0,93,0.00,,,0.00,weatherlink.com 1.10,2013-01-15 12:51:00,
2013-01-15 08:06:00,11.7,10.0,30.48,NW,316,0.0,0.0,93,0.00,,,0.00,weatherlink.com 1.10,2013-01-15 13:06:00,
2013-01-15 08:21:00,11.7,10.0,30.48,NW,316,0.0,0.0,93,0.00,,,0.00,weatherlink.com 1.10,2013-01-15 13:21:00,
2013-01-15 08:36:00,12.1,11.0,30.50,NW,316,0.0,0.0,93,0.00,,,0.00,weatherlink.com 1.10,2013-01-15 13:36:00,
2013-01-15 08:51:00,12.6,11.0,30.50,NW,316,0.0,0.0,93,0.00,,,0.00,weatherlink.com 1.10,2013-01-15 13:51:00,
2013-01-15 09:06:00,13.8,12.0,30.50,SW,217,0.0,1.0,94,0.00,,,0.00,weatherlink.com 1.10,2013-01-15 14:06:00,
2013-01-15 09:21:00,15.4,14.0,30.49,SW,232,0.0,1.0,95,0.00,,,0.00,weatherlink.com 1.10,2013-01-15 14:21:00,
2013-01-15 09:37:00,18.2,17.0,30.49,SSE,153,0.0,2.0,95,0.00,,,0.00,weatherlink.com 1.10,2013-01-15 14:37:00,
2013-01-15 09:52:00,20.9,19.0,30.49,SW,229,0.0,1.0,92,0.00,,,0.00,weatherlink.com 1.10,2013-01-15 14:52:00,
2013-01-15 10:07:00,22.8,20.0,30.49,SW,217,0.0,1.0,90,0.00,,,0.00,weatherlink.com 1.10,2013-01-15 15:07:00,
2013-01-15 10:22:00,25.5,22.0,30.49,SE,138,0.0,2.0,86,0.00,,,0.00,weatherlink.com 1.10,2013-01-15 15:22:00,
2013-01-15 10:37:00,26.0,21.0,30.50,West,259,1.0,3.0,81,0.00,,,0.00,weatherlink.com 1.10,2013-01-15 15:37:00,
2013-01-15 10:52:00,27.4,21.0,30.50,SW,221,0.0,2.0,78,0.00,,,0.00,weatherlink.com 1.10,2013-01-15 15:52:00,
2013-01-15 11:07:00,28.7,21.0,30.50,SSE,147,0.0,3.0,74,0.00,,,0.00,weatherlink.com 1.10,2013-01-15 16:07:00,
2013-01-15 11:22:00,29.2,21.0,30.50,SW,224,2.0,4.0,72,0.00,,,0.00,weatherlink.com 1.10,2013-01-15 16:22:00,
2013-01-15 11:37:00,29.0,21.0,30.49,ESE,123,0.0,4.0,71,0.00,,,0.00,weatherlink.com 1.10,2013-01-15 16:37:00,
2013-01-15 11:52:00,29.4,20.0,30.48,SSE,166,0.0,4.0,68,0.00,,,0.00,weatherlink.com 1.10,2013-01-15 16:52:00,
2013-01-15 12:07:00,29.0,20.0,30.47,SW,235,2.0,5.0,69,0.00,,,0.00,weatherlink.com 1.10,2013-01-15 17:07:00,
2013-01-15 12:22:00,29.1,20.0,30.44,SW,225,0.0,5.0,68,0.00,,,0.00,weatherlink.com 1.10,2013-01-15 17:22:00,
2013-01-15 12:37:00,29.3,21.0,30.43,SSE,150,2.0,5.0,70,0.00,,,0.00,weatherlink.com 1.10,2013-01-15 17:37:00,
2013-01-15 12:52:00,29.8,21.0,30.43,WSW,239,5.0,7.0,69,0.00,,,0.00,weatherlink.com 1.10,2013-01-15 17:52:00,
2013-01-15 13:07:00,29.8,21.0,30.43,South,181,1.0,5.0,69,0.00,,,0.00,weatherlink.com 1.10,2013-01-15 18:07:00,
2013-01-15 13:22:00,29.0,20.0,30.44,SW,226,2.0,7.0,70,0.00,,,0.00,weatherlink.com 1.10,2013-01-15 18:22:00,
2013-01-15 13:37:00,28.9,20.0,30.44,SW,218,3.0,5.0,68,0.00,,,0.00,weatherlink.com 1.10,2013-01-15 18:37:00,
2013-01-15 13:52:00,28.8,18.0,30.43,SSE,149,0.0,6.0,65,0.00,,,0.00,weatherlink.com 1.10,2013-01-15 18:52:00,
2013-01-15 14:07:00,28.9,19.0,30.43,SSE,163,2.0,3.0,66,0.00,,,0.00,weatherlink.com 1.10,2013-01-15 19:07:00,
2013-01-15 14:22:00,28.5,19.0,30.41,East,79,0.0,2.0,67,0.00,,,0.00,weatherlink.com 1.10,2013-01-15 19:22:00,
2013-01-15 14:38:00,28.6,19.0,30.41,SSE,155,1.0,2.0,67,0.00,,,0.00,weatherlink.com 1.10,2013-01-15 19:38:00,
2013-01-15 14:53:00,28.3,19.0,30.40,SE,145,1.0,2.0,67,0.00,,,0.00,weatherlink.com 1.10,2013-01-15 19:53:00,
2013-01-15 15:08:00,28.2,18.0,30.39,SSW,201,1.0,2.0,67,0.00,,,0.00,weatherlink.com 1.10,2013-01-15 20:08:00,
2013-01-15 15:23:00,28.2,18.0,30.40,SSE,153,2.0,2.0,67,0.00,,,0.00,weatherlink.com 1.10,2013-01-15 20:23:00,
2013-01-15 15:38:00,28.3,19.0,30.39,SW,225,0.0,2.0,67,0.00,,,0.00,weatherlink.com 1.10,2013-01-15 20:38:00,
2013-01-15 15:53:00,28.7,19.0,30.39,SE,141,0.0,2.0,66,0.00,,,0.00,weatherlink.com 1.10,2013-01-15 20:53:00,
2013-01-15 16:08:00,29.1,19.0,30.37,South,179,0.0,1.0,66,0.00,,,0.00,weatherlink.com 1.10,2013-01-15 21:08:00,
2013-01-15 16:23:00,28.5,19.0,30.37,WSW,252,0.0,1.0,67,0.00,,,0.00,weatherlink.com 1.10,2013-01-15 21:23:00,
2013-01-15 16:38:00,28.3,19.0,30.38,SSW,200,0.0,1.0,68,0.00,,,0.00,weatherlink.com 1.10,2013-01-15 21:38:00,
2013-01-15 16:53:00,27.9,19.0,30.37,SE,138,0.0,1.0,70,0.00,,,0.00,weatherlink.com 1.10,2013-01-15 21:53:00,
2013-01-15 17:08:00,27.6,18.0,30.36,SE,138,0.0,1.0,68,0.00,,,0.00,weatherlink.com 1.10,2013-01-15 22:08:00,
2013-01-15 17:23:00,27.4,19.0,30.37,SE,134,0.0,3.0,70,0.00,,,0.00,weatherlink.com 1.10,2013-01-15 22:23:00,
2013-01-15 17:38:00,27.2,19.0,30.37,WSW,240,1.0,1.0,71,0.00,,,0.00,weatherlink.com 1.10,2013-01-15 22:38:00,
2013-01-15 17:53:00,26.9,19.0,30.38,SSE,155,1.0,3.0,72,0.00,,,0.00,weatherlink.com 1.10,2013-01-15 22:53:00,
2013-01-15 18:08:00,26.6,19.0,30.38,SSE,155,0.0,1.0,73,0.00,,,0.00,weatherlink.com 1.10,2013-01-15 23:08:00,
2013-01-15 18:24:00,26.3,19.0,30.37,South,184,0.0,1.0,74,0.00,,,0.00,weatherlink.com 1.10,2013-01-15 23:24:00,
2013-01-15 18:38:00,25.7,19.0,30.37,South,184,0.0,0.0,76,0.00,,,0.00,weatherlink.com 1.10,2013-01-15 23:38:00,
2013-01-15 18:53:00,24.8,19.0,30.36,South,184,0.0,0.0,80,0.00,,,0.00,weatherlink.com 1.10,2013-01-15 23:53:00,
2013-01-15 19:08:00,23.7,19.0,30.36,South,183,0.0,0.0,81,0.00,,,0.00,weatherlink.com 1.10,2013-01-16 00:08:00,
2013-01-15 19:23:00,22.9,19.0,30.35,South,183,0.0,0.0,83,0.00,,,0.00,weatherlink.com 1.10,2013-01-16 00:23:00,
2013-01-15 19:38:00,22.1,18.0,30.34,South,183,0.0,0.0,85,0.00,,,0.00,weatherlink.com 1.10,2013-01-16 00:38:00,
2013-01-15 19:53:00,21.3,18.0,30.33,South,183,0.0,0.0,86,0.00,,,0.00,weatherlink.com 1.10,2013-01-16 00:53:00,
2013-01-15 20:08:00,20.6,18.0,30.33,South,183,0.0,0.0,88,0.00,,,0.00,weatherlink.com 1.10,2013-01-16 01:08:00,
2013-01-15 20:23:00,20.0,17.0,30.31,South,183,0.0,0.0,88,0.00,,,0.00,weatherlink.com 1.10,2013-01-16 01:23:00,
2013-01-15 20:38:00,19.5,17.0,30.30,South,183,0.0,0.0,90,0.00,,,0.00,weatherlink.com 1.10,2013-01-16 01:38:00,
2013-01-15 20:53:00,19.2,17.0,30.29,South,183,0.0,0.0,90,0.00,,,0.00,weatherlink.com 1.10,2013-01-16 01:53:00,
2013-01-15 21:08:00,18.8,17.0,30.28,South,184,0.0,0.0,91,0.00,,,0.00,weatherlink.com 1.10,2013-01-16 02:08:00,
2013-01-15 21:23:00,18.3,16.0,30.27,South,183,0.0,0.0,91,0.00,,,0.00,weatherlink.com 1.10,2013-01-16 02:23:00,
2013-01-15 21:38:00,17.9,16.0,30.28,South,183,0.0,0.0,92,0.00,,,0.00,weatherlink.com 1.10,2013-01-16 02:38:00,
2013-01-15 21:53:00,17.5,16.0,30.28,South,183,0.0,0.0,92,0.00,,,0.00,weatherlink.com 1.10,2013-01-16 02:53:00,
2013-01-15 22:08:00,17.3,16.0,30.27,South,183,0.0,0.0,93,0.00,,,0.00,weatherlink.com 1.10,2013-01-16 03:08:00,
2013-01-15 22:23:00,17.2,16.0,30.26,South,183,0.0,0.0,93,0.00,,,0.00,weatherlink.com 1.10,2013-01-16 03:23:00,
2013-01-15 22:38:00,17.0,15.0,30.26,South,183,0.0,0.0,93,0.00,,,0.00,weatherlink.com 1.10,2013-01-16 03:38:00,
2013-01-15 22:53:00,16.7,15.0,30.25,South,183,0.0,0.0,93,0.00,,,0.00,weatherlink.com 1.10,2013-01-16 03:53:00,
2013-01-15 23:08:00,16.6,15.0,30.26,South,183,0.0,0.0,93,0.00,,,0.00,weatherlink.com 1.10,2013-01-16 04:08:00,
2013-01-15 23:23:00,16.4,15.0,30.25,South,183,0.0,0.0,93,0.00,,,0.00,weatherlink.com 1.10,2013-01-16 04:23:00,
2013-01-15 23:38:00,16.3,15.0,30.24,South,183,0.0,0.0,94,0.00,,,0.00,weatherlink.com 1.10,2013-01-16 04:38:00,
2013-01-15 23:53:00,16.0,15.0,30.23,South,183,0.0,0.0,94,0.00,,,0.00,weatherlink.com 1.10,2013-01-16 04:53:00,